Time;durP1;ratioP1;P1;durP2;ratioP2;P2;SDS_P1;SDS_P2;PMS_P1;PMS_P2;Temp;Humidity;BMP_temperature;BMP_pressure;BME280_temperature;BME280_humidity;BME280_pressure;Samples;Min_cycle;Max_cycle;Signal;HPM_P1;HPM_P2
2022/06/19 00:01:52;;;;;;;17.70;6.25;;;12.00;99.90;;;;;;5023031;28;20577;-75
2022/06/19 00:04:18;;;;;;;14.18;6.43;;;12.00;99.90;;;;;;5024881;28;20044;-74
2022/06/19 00:06:44;;;;;;;13.30;6.20;;;12.10;99.90;;;;;;5025701;28;20484;-75
2022/06/19 00:09:10;;;;;;;17.15;6.43;;;12.10;99.90;;;;;;5026396;28;20052;-74
2022/06/19 00:11:39;;;;;;;10.80;5.38;;;12.10;99.90;;;;;;5024363;28;20037;-75
2022/06/19 00:14:05;;;;;;;14.82;6.85;;;12.10;99.90;;;;;;5022672;28;20414;-75
2022/06/19 00:16:31;;;;;;;14.30;6.07;;;12.20;99.90;;;;;;5026542;28;20031;-74
2022/06/19 00:18:57;;;;;;;14.15;6.32;;;12.20;99.90;;;;;;5027339;28;20045;-74
2022/06/19 00:21:23;;;;;;;12.18;6.45;;;12.20;99.90;;;;;;5024111;28;20040;-74
2022/06/19 00:23:48;;;;;;;17.23;7.03;;;12.20;99.90;;;;;;5026228;28;20045;-74
2022/06/19 00:26:15;;;;;;;11.55;6.30;;;12.20;99.90;;;;;;5023847;28;20029;-74
2022/06/19 00:28:40;;;;;;;13.00;6.78;;;12.20;99.90;;;;;;5025865;28;20045;-74
2022/06/19 00:31:07;;;;;;;14.80;7.10;;;12.20;99.90;;;;;;5024684;28;20029;-74
2022/06/19 00:33:33;;;;;;;13.48;6.32;;;12.30;99.90;;;;;;5024098;28;20048;-74
2022/06/19 00:35:59;;;;;;;14.23;6.85;;;12.30;99.90;;;;;;5025924;28;20387;-74
2022/06/19 00:38:24;;;;;;;12.27;6.20;;;12.30;99.90;;;;;;5027619;28;20056;-74
2022/06/19 00:40:53;;;;;;;8.75;4.93;;;12.30;99.90;;;;;;5025611;28;20507;-74
2022/06/19 00:43:19;;;;;;;14.00;6.37;;;12.20;99.90;;;;;;5024100;28;20040;-74
2022/06/19 00:45:50;;;;;;;11.57;6.22;;;12.30;99.90;;;;;;5026082;28;20286;-74
2022/06/19 00:48:30;;;;;;;13.82;6.45;;;12.30;99.90;;;;;;5022863;28;20033;-74
2022/06/19 00:51:00;;;;;;;10.68;6.32;;;12.30;99.90;;;;;;5026204;28;20048;-74
2022/06/19 00:53:35;;;;;;;12.43;6.10;;;12.30;99.90;;;;;;5024106;28;20072;-74
2022/06/19 00:56:01;;;;;;;11.70;6.68;;;12.30;99.90;;;;;;5023544;28;20026;-74
2022/06/19 00:58:34;;;;;;;13.95;6.55;;;12.30;99.90;;;;;;5023958;28;20057;-74
2022/06/19 01:01:09;;;;;;;14.63;7.13;;;12.30;99.90;;;;;;5025244;28;20116;-74
2022/06/19 01:03:45;;;;;;;14.25;7.50;;;12.30;99.90;;;;;;5026467;28;20060;-74
2022/06/19 01:06:11;;;;;;;13.00;6.72;;;12.30;99.90;;;;;;5022949;28;20029;-74
2022/06/19 01:08:37;;;;;;;12.93;7.50;;;12.30;99.90;;;;;;5026138;28;20116;-73
2022/06/19 01:11:04;;;;;;;15.13;8.20;;;12.30;99.90;;;;;;5025707;28;20112;-74
2022/06/19 01:13:31;;;;;;;14.68;8.13;;;12.40;99.90;;;;;;5033377;28;20045;-74
2022/06/19 01:15:59;;;;;;;15.50;8.18;;;12.40;99.90;;;;;;5024860;28;20040;-74
2022/06/19 01:18:25;;;;;;;16.85;8.23;;;12.40;99.90;;;;;;5023538;28;20034;-74
2022/06/19 01:20:57;;;;;;;14.43;8.65;;;12.40;99.90;;;;;;5026666;28;20055;-74
2022/06/19 01:23:47;;;;;;;13.77;7.70;;;12.40;99.90;;;;;;5027501;28;20468;-74
2022/06/19 01:26:14;;;;;;;16.40;8.20;;;12.40;99.90;;;;;;5027555;28;20038;-73
2022/06/19 01:28:54;;;;;;;14.70;8.57;;;12.40;99.90;;;;;;5028490;28;20052;-73
2022/06/19 01:31:32;;;;;;;;;;;12.40;99.90;;;;;;5030067;28;20480;-74
2022/06/19 01:34:26;;;;;;;16.70;10.02;;;12.50;99.90;;;;;;5027288;28;19928;-74
2022/06/19 01:36:56;;;;;;;15.60;6.88;;;12.50;99.90;;;;;;5026807;28;20448;-73
2022/06/19 01:39:23;;;;;;;12.95;6.50;;;12.40;99.90;;;;;;5028005;28;20487;-74
2022/06/19 01:41:49;;;;;;;13.95;6.85;;;12.40;99.90;;;;;;5028519;28;20048;-74
2022/06/19 01:44:14;;;;;;;17.20;6.30;;;12.30;99.90;;;;;;5026144;28;20033;-74
2022/06/19 01:46:40;;;;;;;13.32;5.47;;;12.30;99.90;;;;;;5029627;28;20031;-73
2022/06/19 01:49:06;;;;;;;15.27;5.65;;;12.20;99.90;;;;;;5028857;28;20033;-74
2022/06/19 01:51:33;;;;;;;12.48;4.40;;;12.10;99.90;;;;;;5029608;28;20116;-73
2022/06/19 01:54:00;;;;;;;12.13;4.32;;;12.10;99.90;;;;;;5027032;28;20037;-73
2022/06/19 01:56:26;;;;;;;10.90;3.13;;;12.00;99.90;;;;;;5027257;28;20032;-73
2022/06/19 01:58:55;;;;;;;14.35;3.33;;;11.90;99.90;;;;;;5028319;28;20053;-73
2022/06/19 02:01:21;;;;;;;12.65;3.30;;;11.80;99.90;;;;;;5028432;28;20474;-73
2022/06/19 02:03:57;;;;;;;6.65;2.35;;;11.70;99.90;;;;;;5023880;28;20044;-73
2022/06/19 02:06:30;;;;;;;9.10;2.30;;;11.60;99.90;;;;;;5041914;28;20037;-73
2022/06/19 02:08:56;;;;;;;12.13;2.10;;;11.50;99.90;;;;;;5029087;28;20088;-74
2022/06/19 02:11:22;;;;;;;10.38;1.95;;;11.40;99.90;;;;;;5028299;28;20049;-73
2022/06/19 02:13:48;;;;;;;9.70;2.00;;;11.30;99.90;;;;;;5026098;28;20042;-74
2022/06/19 02:16:20;;;;;;;7.07;1.50;;;11.20;99.90;;;;;;5025860;28;20057;-73
2022/06/19 02:18:49;;;;;;;9.82;2.25;;;11.20;99.90;;;;;;5025564;28;20034;-74
2022/06/19 02:21:22;;;;;;;8.90;1.52;;;11.10;99.90;;;;;;5026911;28;20033;-74
2022/06/19 02:23:49;;;;;;;6.75;1.90;;;11.10;99.90;;;;;;5024794;28;20499;-73
2022/06/19 02:26:15;;;;;;;7.45;1.80;;;11.10;99.90;;;;;;5043823;28;20043;-74
2022/06/19 02:28:48;;;;;;;7.50;1.92;;;11.10;99.90;;;;;;5028446;28;20037;-74
2022/06/19 02:31:16;;;;;;;9.23;2.35;;;11.10;99.90;;;;;;5026188;28;20029;-74
2022/06/19 02:33:53;;;;;;;9.25;1.60;;;11.00;99.90;;;;;;5027171;28;20086;-75
2022/06/19 02:36:42;;;;;;;8.13;1.85;;;11.00;99.90;;;;;;5028584;28;20029;-74
2022/06/19 02:39:45;;;;;;;7.13;1.88;;;11.00;99.90;;;;;;5026060;28;20060;-74
2022/06/19 02:42:17;;;;;;;8.82;2.30;;;11.00;99.90;;;;;;5026046;28;20034;-74
2022/06/19 02:44:43;;;;;;;6.07;1.83;;;11.10;99.90;;;;;;5026496;28;20030;-74
2022/06/19 02:47:10;;;;;;;6.68;2.00;;;11.10;99.90;;;;;;5028212;28;20040;-74
2022/06/19 02:49:36;;;;;;;6.55;1.80;;;11.00;99.90;;;;;;5027693;28;20531;-75
2022/06/19 02:52:04;;;;;;;9.38;2.67;;;11.10;99.90;;;;;;5025359;28;20037;-75
2022/06/19 02:54:29;;;;;;;13.38;2.65;;;11.00;99.90;;;;;;5024610;28;20052;-74
2022/06/19 02:56:55;;;;;;;6.30;1.90;;;11.10;99.90;;;;;;5028958;28;20025;-74
2022/06/19 02:59:22;;;;;;;8.32;2.30;;;11.00;99.90;;;;;;5027680;28;20041;-74
2022/06/19 03:01:47;;;;;;;7.88;2.15;;;11.00;99.90;;;;;;5027828;28;20045;-74
2022/06/19 03:04:48;;;;;;;7.70;2.10;;;11.10;99.90;;;;;;5026380;28;20033;-74
2022/06/19 03:07:14;;;;;;;10.50;2.65;;;11.10;99.90;;;;;;5016742;28;20042;-74
2022/06/19 03:09:39;;;;;;;6.28;2.15;;;11.10;99.90;;;;;;5027234;28;20037;-74
2022/06/19 03:12:07;;;;;;;7.70;2.33;;;11.00;99.90;;;;;;5026964;28;20116;-74
2022/06/19 03:14:33;;;;;;;11.30;3.30;;;11.00;99.90;;;;;;5026453;28;20068;-74
2022/06/19 03:16:58;;;;;;;8.35;2.42;;;11.00;99.90;;;;;;5027373;28;20504;-74
2022/06/19 03:19:24;;;;;;;9.02;2.60;;;11.00;99.90;;;;;;5026104;28;20040;-74
2022/06/19 03:21:50;;;;;;;7.47;2.25;;;11.00;99.90;;;;;;5026269;28;20043;-74
2022/06/19 03:24:16;;;;;;;9.70;2.85;;;11.00;99.90;;;;;;5025921;28;20056;-74
2022/06/19 03:26:42;;;;;;;8.02;2.58;;;11.10;99.90;;;;;;5026913;28;20056;-74
2022/06/19 03:29:08;;;;;;;7.07;2.70;;;11.10;99.90;;;;;;5025725;28;20033;-74
2022/06/19 03:31:34;;;;;;;5.85;1.80;;;11.10;99.90;;;;;;5026387;28;20595;-74
2022/06/19 03:34:00;;;;;;;8.05;2.67;;;11.10;99.90;;;;;;5027234;28;20041;-74
2022/06/19 03:36:26;;;;;;;6.80;2.20;;;11.10;99.90;;;;;;5027765;28;20032;-74
2022/06/19 03:38:52;;;;;;;8.32;2.40;;;11.10;99.90;;;;;;5026900;28;20433;-74
2022/06/19 03:41:17;;;;;;;5.88;2.65;;;11.10;99.90;;;;;;5025933;28;20140;-74
2022/06/19 03:43:43;;;;;;;8.02;2.63;;;11.20;99.90;;;;;;5027132;28;20033;-74
2022/06/19 03:46:15;;;;;;;7.68;3.03;;;11.20;99.90;;;;;;5027581;28;20435;-74
2022/06/19 03:48:43;;;;;;;6.25;2.90;;;11.20;99.90;;;;;;5025810;28;20033;-74
2022/06/19 03:51:09;;;;;;;8.45;3.20;;;11.10;99.90;;;;;;5024247;28;20415;-74
2022/06/19 03:53:36;;;;;;;8.30;2.97;;;11.20;99.90;;;;;;5025384;28;20041;-74
2022/06/19 03:56:02;;;;;;;8.18;3.00;;;11.10;99.90;;;;;;5024074;28;20195;-74
2022/06/19 03:58:45;;;;;;;8.82;3.42;;;11.10;99.90;;;;;;5026422;28;20050;-74
2022/06/19 04:01:13;;;;;;;7.38;3.22;;;11.10;99.90;;;;;;5025309;28;20033;-74
2022/06/19 04:03:39;;;;;;;9.13;3.65;;;11.10;99.90;;;;;;5025925;28;20025;-75
2022/06/19 04:06:05;;;;;;;9.43;3.63;;;11.10;99.90;;;;;;5025985;28;20561;-74
2022/06/19 04:08:31;;;;;;;7.78;3.25;;;11.10;99.90;;;;;;5025012;28;20030;-74
2022/06/19 04:10:57;;;;;;;8.30;3.38;;;11.10;99.90;;;;;;5027362;28;20048;-74
2022/06/19 04:13:22;;;;;;;9.35;3.42;;;11.10;99.90;;;;;;5024346;28;20033;-74
2022/06/19 04:15:48;;;;;;;11.05;3.00;;;11.10;99.90;;;;;;5025647;28;20037;-73
2022/06/19 04:18:14;;;;;;;8.93;2.70;;;11.10;99.90;;;;;;5024465;28;20383;-73
2022/06/19 04:20:39;;;;;;;7.93;3.08;;;11.10;99.90;;;;;;5026063;28;20606;-73
2022/06/19 04:23:08;;;;;;;8.88;3.03;;;11.20;99.90;;;;;;5026094;28;20472;-74
2022/06/19 04:25:34;;;;;;;9.98;3.25;;;11.20;99.90;;;;;;5020659;28;20128;-74
2022/06/19 04:27:59;;;;;;;8.32;3.13;;;11.20;99.90;;;;;;5024936;28;20124;-74
2022/06/19 04:30:25;;;;;;;7.90;3.30;;;11.20;99.90;;;;;;5025362;28;20510;-74
2022/06/19 04:32:51;;;;;;;8.43;3.40;;;11.20;99.90;;;;;;5025865;28;20154;-74
2022/06/19 04:35:16;;;;;;;8.32;3.20;;;11.20;99.90;;;;;;5025420;28;20064;-74
2022/06/19 04:37:43;;;;;;;7.40;3.65;;;11.20;99.90;;;;;;5025472;28;20656;-74
2022/06/19 04:40:10;;;;;;;7.78;2.88;;;11.30;99.90;;;;;;5024940;28;20060;-74
2022/06/19 04:42:36;;;;;;;8.63;2.80;;;11.20;99.90;;;;;;5026026;28;20029;-74
2022/06/19 04:45:02;;;;;;;6.95;2.95;;;11.20;99.90;;;;;;5025769;28;20391;-74
2022/06/19 04:47:27;;;;;;;9.48;3.10;;;11.20;99.90;;;;;;5038599;28;20116;-74
2022/06/19 04:49:53;;;;;;;8.82;2.80;;;11.20;99.90;;;;;;5025990;28;20026;-74
2022/06/19 04:52:19;;;;;;;9.57;2.97;;;11.20;99.90;;;;;;5025778;28;20723;-74
2022/06/19 04:54:45;;;;;;;6.82;2.50;;;11.20;99.90;;;;;;5022046;28;20412;-74
2022/06/19 04:57:11;;;;;;;8.35;2.35;;;11.20;99.90;;;;;;5028086;28;20498;-74
2022/06/19 04:59:37;;;;;;;8.68;2.25;;;11.20;99.90;;;;;;5028948;28;20049;-74
2022/06/19 05:02:03;;;;;;;10.23;2.80;;;11.20;99.90;;;;;;5029388;28;20029;-74
2022/06/19 05:04:29;;;;;;;7.03;2.15;;;11.20;99.90;;;;;;5028409;28;20032;-74
2022/06/19 05:06:54;;;;;;;9.70;2.50;;;11.20;99.90;;;;;;5027815;28;20037;-74
2022/06/19 05:09:20;;;;;;;11.45;2.40;;;11.20;99.90;;;;;;5028617;28;20032;-74
2022/06/19 05:11:46;;;;;;;9.30;2.38;;;11.20;99.90;;;;;;5030159;28;20036;-74
2022/06/19 05:14:11;;;;;;;10.30;2.28;;;11.20;99.90;;;;;;5026703;28;20384;-74
2022/06/19 05:16:38;;;;;;;9.00;1.70;;;11.20;99.90;;;;;;5028248;28;20037;-74
2022/06/19 05:19:04;;;;;;;13.02;2.80;;;11.20;99.90;;;;;;5028471;28;20033;-74
2022/06/19 05:21:30;;;;;;;8.90;2.20;;;11.20;99.90;;;;;;5027726;28;20048;-74
2022/06/19 05:23:56;;;;;;;9.45;2.45;;;11.20;99.90;;;;;;5028996;28;20092;-74
2022/06/19 05:26:33;;;;;;;8.27;1.85;;;11.20;99.90;;;;;;5028694;28;20042;-74
2022/06/19 05:28:59;;;;;;;12.63;2.85;;;11.20;99.90;;;;;;5029427;28;20033;-74
2022/06/19 05:31:26;;;;;;;12.43;2.72;;;11.20;99.90;;;;;;5029534;28;20502;-74
2022/06/19 05:33:52;;;;;;;11.20;2.40;;;11.30;99.90;;;;;;5026995;28;20084;-74
2022/06/19 05:36:20;;;;;;;10.43;2.67;;;11.30;99.90;;;;;;5027597;28;20037;-74
2022/06/19 05:38:45;;;;;;;11.95;2.15;;;11.30;99.90;;;;;;5025158;28;20076;-74
2022/06/19 05:41:12;;;;;;;15.65;2.45;;;11.30;99.90;;;;;;5027528;28;20041;-74
2022/06/19 05:43:38;;;;;;;14.55;2.38;;;11.30;99.90;;;;;;5028900;28;20037;-74
2022/06/19 05:46:14;;;;;;;10.55;2.72;;;11.40;99.90;;;;;;5026945;28;20068;-74
2022/06/19 05:48:41;;;;;;;11.27;2.53;;;11.40;99.90;;;;;;5029640;28;20222;-74
2022/06/19 05:51:13;;;;;;;9.48;2.55;;;11.40;99.90;;;;;;5027587;28;20124;-74
2022/06/19 05:53:43;;;;;;;9.93;2.55;;;11.40;99.90;;;;;;5029988;28;20471;-74
2022/06/19 05:56:11;;;;;;;10.18;2.70;;;11.30;99.90;;;;;;5024093;28;20116;-74
2022/06/19 05:58:37;;;;;;;11.30;2.50;;;11.40;99.90;;;;;;5027298;28;20053;-74
2022/06/19 06:01:03;;;;;;;10.77;2.38;;;11.30;99.90;;;;;;5025756;28;20147;-74
2022/06/19 06:03:30;;;;;;;12.93;2.88;;;11.40;99.90;;;;;;5019582;28;20033;-74
2022/06/19 06:06:03;;;;;;;15.90;3.00;;;11.40;99.90;;;;;;5028182;28;20036;-74
2022/06/19 06:08:29;;;;;;;15.70;2.65;;;11.40;99.90;;;;;;5027111;28;20072;-74
2022/06/19 06:10:55;;;;;;;11.63;3.15;;;11.40;99.90;;;;;;5024570;28;20025;-74
2022/06/19 06:13:21;;;;;;;11.30;2.65;;;11.40;99.90;;;;;;5027599;28;20059;-74
2022/06/19 06:15:48;;;;;;;15.38;2.60;;;11.50;99.90;;;;;;5027059;28;20025;-74
2022/06/19 06:18:14;;;;;;;11.20;3.08;;;11.40;99.90;;;;;;5024527;28;20025;-74
2022/06/19 06:20:40;;;;;;;13.38;2.50;;;11.50;99.90;;;;;;5025706;28;20032;-74
2022/06/19 06:23:06;;;;;;;15.00;2.90;;;11.50;99.90;;;;;;5022964;28;20129;-74
2022/06/19 06:25:32;;;;;;;12.85;3.22;;;11.50;99.90;;;;;;5025837;28;20721;-74
2022/06/19 06:27:57;;;;;;;11.73;2.95;;;11.50;99.90;;;;;;5026665;28;20029;-74
2022/06/19 06:30:23;;;;;;;9.57;2.50;;;11.50;99.90;;;;;;5026770;28;20029;-75
2022/06/19 06:32:49;;;;;;;10.25;2.67;;;11.50;99.90;;;;;;5029311;28;20037;-74
2022/06/19 06:35:15;;;;;;;13.23;2.40;;;11.50;99.90;;;;;;5018175;28;20109;-75
2022/06/19 06:37:40;;;;;;;13.35;3.03;;;11.60;99.90;;;;;;5026571;28;20083;-74
2022/06/19 06:40:08;;;;;;;11.35;2.80;;;11.60;99.90;;;;;;5028994;28;20029;-75
2022/06/19 06:42:34;;;;;;;11.07;2.50;;;11.60;99.90;;;;;;5025909;28;20092;-74
2022/06/19 06:45:00;;;;;;;12.95;2.88;;;11.60;99.90;;;;;;5029062;28;20037;-74
2022/06/19 06:47:26;;;;;;;12.88;3.20;;;11.60;99.90;;;;;;5029776;28;20037;-74
2022/06/19 06:49:51;;;;;;;10.90;2.83;;;11.70;99.90;;;;;;5026646;28;20498;-75
2022/06/19 06:52:17;;;;;;;14.23;3.58;;;11.70;99.90;;;;;;5029344;28;20118;-73
2022/06/19 06:54:43;;;;;;;11.73;3.40;;;11.70;99.90;;;;;;5028394;28;20029;-74
2022/06/19 06:57:09;;;;;;;12.80;2.97;;;11.80;99.90;;;;;;5029098;28;20041;-73
2022/06/19 06:59:36;;;;;;;13.85;3.30;;;11.80;99.90;;;;;;5027831;28;20053;-75
2022/06/19 07:02:02;;;;;;;11.18;3.00;;;11.90;99.90;;;;;;5027006;28;20037;-75
2022/06/19 07:04:28;;;;;;;19.10;3.72;;;11.90;99.90;;;;;;5026019;28;20103;-75
2022/06/19 07:06:53;;;;;;;10.95;3.20;;;11.90;99.90;;;;;;5027423;28;20511;-75
2022/06/19 07:09:19;;;;;;;16.92;3.20;;;12.00;99.90;;;;;;5023927;28;20399;-75
2022/06/19 07:11:49;;;;;;;12.75;2.88;;;12.10;99.90;;;;;;5020474;28;20835;-75
2022/06/19 07:14:17;;;;;;;12.63;2.88;;;12.10;99.90;;;;;;5020936;28;20045;-75
2022/06/19 07:16:43;;;;;;;14.68;3.88;;;12.20;99.90;;;;;;5020472;28;20108;-75
2022/06/19 07:19:10;;;;;;;14.00;3.33;;;12.30;99.90;;;;;;5022849;28;20116;-75
2022/06/19 07:21:36;;;;;;;12.80;3.38;;;12.40;99.90;;;;;;5018798;28;20076;-74
2022/06/19 07:24:02;;;;;;;11.90;2.92;;;12.40;99.90;;;;;;5019359;28;20111;-73
2022/06/19 07:26:28;;;;;;;14.73;2.92;;;12.40;99.90;;;;;;5021089;28;20033;-74
2022/06/19 07:28:54;;;;;;;16.73;3.35;;;12.50;99.90;;;;;;5020790;28;20026;-75
2022/06/19 07:31:19;;;;;;;12.13;3.33;;;12.60;99.90;;;;;;5039871;28;20041;-74
2022/06/19 07:33:45;;;;;;;12.05;3.42;;;12.70;99.90;;;;;;5025029;28;20129;-74
2022/06/19 07:36:15;;;;;;;13.82;3.17;;;12.80;99.90;;;;;;5025546;28;20116;-74
2022/06/19 07:38:41;;;;;;;11.93;3.30;;;12.90;99.90;;;;;;5018605;28;20563;-74
2022/06/19 07:41:07;;;;;;;9.68;2.60;;;13.00;99.90;;;;;;5017877;28;20039;-74
2022/06/19 07:43:32;;;;;;;12.07;3.00;;;13.10;99.90;;;;;;5025988;28;20033;-74
2022/06/19 07:45:58;;;;;;;10.93;2.72;;;13.20;99.90;;;;;;5023712;28;20036;-74
2022/06/19 07:51:08;;;;;;;14.63;3.08;;;13.30;99.90;;;;;;5026203;28;20056;-73
2022/06/19 07:53:33;;;;;;;9.70;2.90;;;13.40;99.90;;;;;;5022508;28;20762;-73
2022/06/19 07:55:59;;;;;;;12.65;3.33;;;13.50;99.90;;;;;;5020735;28;20698;-75
2022/06/19 07:58:25;;;;;;;11.43;2.60;;;13.60;99.90;;;;;;5017406;28;20142;-73
2022/06/19 08:00:51;;;;;;;17.08;3.50;;;13.60;99.90;;;;;;5017275;28;20049;-74
2022/06/19 08:03:16;;;;;;;9.23;3.03;;;13.60;99.90;;;;;;5022298;28;20825;-73
2022/06/19 08:05:43;;;;;;;11.48;2.83;;;13.60;99.90;;;;;;5020274;28;20037;-73
2022/06/19 08:08:26;;;;;;;11.25;3.08;;;13.60;99.90;;;;;;5023966;28;20037;-73
2022/06/19 08:10:53;;;;;;;8.38;2.80;;;13.70;99.90;;;;;;5022030;28;20057;-73
2022/06/19 08:13:21;;;;;;;13.50;3.00;;;13.80;99.90;;;;;;5023457;28;20396;-74
2022/06/19 08:15:53;;;;;;;11.38;2.42;;;13.90;99.90;;;;;;5020383;28;20045;-73
2022/06/19 08:18:19;;;;;;;12.10;3.05;;;13.90;99.90;;;;;;5040096;28;20449;-74
2022/06/19 08:20:46;;;;;;;13.45;3.35;;;14.00;99.90;;;;;;5024881;28;20546;-74
2022/06/19 08:23:13;;;;;;;14.77;3.00;;;14.10;99.90;;;;;;5023208;28;20112;-73
2022/06/19 08:25:39;;;;;;;11.07;3.05;;;14.10;99.90;;;;;;5022741;28;20041;-73
2022/06/19 08:28:05;;;;;;;11.88;2.90;;;14.30;99.90;;;;;;5023066;28;20029;-74
2022/06/19 08:30:35;;;;;;;17.58;2.97;;;14.50;99.90;;;;;;5024279;28;20037;-73
2022/06/19 08:33:02;;;;;;;11.45;2.83;;;14.60;99.90;;;;;;5025384;28;20044;-75
2022/06/19 08:35:30;;;;;;;14.35;3.13;;;14.70;99.90;;;;;;5021335;28;20037;-73
2022/06/19 08:38:04;;;;;;;10.30;2.83;;;14.80;99.90;;;;;;5024019;28;20484;-75
2022/06/19 08:40:48;;;;;;;12.43;3.08;;;14.90;99.90;;;;;;5021786;28;20086;-73
2022/06/19 08:43:17;;;;;;;10.20;2.95;;;15.00;99.90;;;;;;5021708;28;20080;-74
2022/06/19 08:46:17;;;;;;;13.02;2.95;;;15.10;99.90;;;;;;5025090;28;20033;-73
2022/06/19 08:48:57;;;;;;;11.80;2.85;;;15.30;99.90;;;;;;5001830;28;20125;-75
2022/06/19 08:51:59;;;;;;;10.10;2.58;;;15.30;99.90;;;;;;4999997;28;20034;-76
2022/06/19 08:54:31;;;;;;;13.30;3.42;;;15.40;99.90;;;;;;4994978;28;20077;-74
2022/06/19 08:57:19;;;;;;;10.27;2.95;;;15.50;99.90;;;;;;4997638;28;20053;-75
2022/06/19 09:00:03;;;;;;;11.02;2.80;;;15.50;99.80;;;;;;5014217;28;21859;-75
2022/06/19 09:02:36;;;;;;;10.05;2.33;;;15.60;99.90;;;;;;5023639;28;20057;-74
2022/06/19 09:05:46;;;;;;;7.50;2.10;;;15.70;99.70;;;;;;4999582;28;20056;-74
2022/06/19 09:08:21;;;;;;;9.95;2.35;;;15.90;99.30;;;;;;5023422;28;20037;-74
2022/06/19 09:10:48;;;;;;;12.65;2.92;;;15.80;98.50;;;;;;5019584;28;20034;-74
2022/06/19 09:13:51;;;;;;;10.55;2.35;;;15.80;98.50;;;;;;5007019;28;20036;-75
2022/06/19 09:16:38;;;;;;;15.00;2.67;;;15.70;98.20;;;;;;5023331;28;20037;-74
2022/06/19 09:19:11;;;;;;;11.90;2.67;;;15.50;98.90;;;;;;5019345;28;20049;-74
2022/06/19 09:22:07;;;;;;;12.05;2.35;;;15.30;99.00;;;;;;5003588;28;20460;-75
2022/06/19 09:24:42;;;;;;;14.68;2.60;;;15.20;99.90;;;;;;5019979;28;20105;-75
2022/06/19 09:27:10;;;;;;;9.70;2.50;;;15.10;99.90;;;;;;5021553;28;20116;-74
2022/06/19 09:29:46;;;;;;;11.85;2.45;;;15.10;99.90;;;;;;5022936;28;20033;-74
2022/06/19 09:32:41;;;;;;;9.27;2.10;;;15.00;99.90;;;;;;5000289;28;20479;-75
2022/06/19 09:35:24;;;;;;;11.13;2.42;;;14.90;99.90;;;;;;5014437;28;20056;-75
2022/06/19 09:37:57;;;;;;;10.20;2.33;;;14.90;99.90;;;;;;5020281;28;20041;-74
2022/06/19 09:40:37;;;;;;;10.02;2.53;;;14.90;99.90;;;;;;5017945;28;20033;-74
2022/06/19 09:43:22;;;;;;;;;;;14.90;99.90;;;;;;5020147;28;20088;-74
2022/06/19 09:46:02;;;;;;;11.05;2.38;;;14.80;99.90;;;;;;5021774;28;19912;-75
2022/06/19 09:48:55;;;;;;;11.88;2.92;;;14.80;99.90;;;;;;5001575;28;20053;-75
2022/06/19 09:51:47;;;;;;;11.18;2.75;;;14.80;99.90;;;;;;5017402;28;20613;-75
2022/06/19 09:54:36;;;;;;;13.60;2.70;;;14.80;99.90;;;;;;5010470;28;20045;-74
2022/06/19 09:57:14;;;;;;;9.63;2.60;;;14.80;99.90;;;;;;4989193;28;20052;-74
2022/06/19 10:00:09;;;;;;;12.82;3.95;;;14.80;99.90;;;;;;4994418;28;20061;-74
2022/06/19 10:02:54;;;;;;;11.70;3.22;;;14.70;99.90;;;;;;5010843;28;20042;-74
2022/06/19 10:05:38;;;;;;;12.85;3.28;;;14.70;99.90;;;;;;5017748;28;20068;-74
2022/06/19 10:08:16;;;;;;;10.15;2.90;;;14.70;99.90;;;;;;5010180;28;20778;-75
2022/06/19 10:10:56;;;;;;;10.15;2.72;;;14.70;99.90;;;;;;5009895;28;20029;-74
2022/06/19 10:13:31;;;;;;;;;;;14.80;99.90;;;;;;4991948;28;20034;-74
2022/06/19 10:16:00;;;;;;;8.80;2.10;;;14.80;99.90;;;;;;5014334;28;20394;-75
2022/06/19 10:18:37;;;;;;;9.73;2.40;;;14.80;99.90;;;;;;4992464;28;20033;-74
2022/06/19 10:21:05;;;;;;;8.52;1.88;;;14.80;99.90;;;;;;4989865;28;20104;-74
2022/06/19 10:23:34;;;;;;;10.07;2.07;;;14.80;99.90;;;;;;5017237;28;20038;-74
2022/06/19 10:26:11;;;;;;;11.77;2.03;;;14.90;99.90;;;;;;5011562;28;20061;-75
2022/06/19 10:29:08;;;;;;;12.55;2.25;;;14.90;99.90;;;;;;5010692;28;20029;-76
2022/06/19 10:31:47;;;;;;;9.50;1.75;;;14.90;99.80;;;;;;5008937;28;20030;-74
2022/06/19 10:34:29;;;;;;;10.10;2.60;;;14.90;99.60;;;;;;5012007;28;20065;-74
2022/06/19 10:38:06;;;;;;;9.63;2.20;;;15.00;99.30;;;;;;5005911;28;20045;-74
2022/06/19 10:40:51;;;;;;;8.50;2.20;;;15.00;99.90;;;;;;4898404;29;20043;-74
2022/06/19 10:43:30;;;;;;;10.00;3.20;;;15.10;99.40;;;;;;4903480;29;20048;-74
2022/06/19 10:45:59;;;;;;;14.57;2.38;;;15.10;99.90;;;;;;4901021;29;20059;-75
2022/06/19 10:48:48;;;;;;;9.05;2.03;;;15.20;98.60;;;;;;4889449;29;20123;-74
2022/06/19 10:51:32;;;;;;;13.95;2.33;;;15.20;99.90;;;;;;4902241;29;20353;-75
2022/06/19 10:54:20;;;;;;;9.57;2.03;;;15.10;99.90;;;;;;4900361;29;20146;-74
2022/06/19 10:56:52;;;;;;;11.30;2.30;;;15.10;99.70;;;;;;4889803;29;20685;-75
2022/06/19 10:59:18;;;;;;;11.32;2.58;;;15.10;99.90;;;;;;4894648;29;20051;-75
2022/06/19 11:04:54;;;;;;;8.25;1.95;;;15.00;99.90;;;;;;4891044;29;20086;-74
2022/06/19 11:07:21;;;;;;;11.60;2.40;;;15.00;99.90;;;;;;4886570;29;20061;-74
2022/06/19 11:09:50;;;;;;;8.57;2.30;;;15.00;99.90;;;;;;4890464;29;20087;-74
2022/06/19 11:12:21;;;;;;;9.70;2.15;;;15.10;99.90;;;;;;4971583;28;20034;-74
2022/06/19 11:14:55;;;;;;;14.88;2.28;;;15.20;99.90;;;;;;4980510;28;20052;-75
2022/06/19 11:17:34;;;;;;;8.38;1.73;;;15.30;99.90;;;;;;5028872;28;20112;-74
2022/06/19 11:20:24;;;;;;;10.98;2.00;;;15.40;99.90;;;;;;5027711;28;20029;-75
2022/06/19 11:23:03;;;;;;;8.65;1.77;;;15.50;99.90;;;;;;5028927;28;20041;-73
2022/06/19 11:25:33;;;;;;;9.70;2.00;;;15.60;99.90;;;;;;5029263;28;20033;-73
2022/06/19 11:28:08;;;;;;;11.98;1.85;;;15.80;99.90;;;;;;5012705;28;20028;-73
2022/06/19 11:30:42;;;;;;;10.18;2.40;;;15.90;99.90;;;;;;5011560;28;20095;-73
2022/06/19 11:33:15;;;;;;;10.13;2.38;;;16.00;99.90;;;;;;5029367;28;20030;-73
2022/06/19 11:35:53;;;;;;;8.40;1.90;;;16.00;99.90;;;;;;5011051;28;20487;-73
2022/06/19 11:38:32;;;;;;;8.55;2.33;;;16.00;99.30;;;;;;5029176;28;20025;-73
2022/06/19 11:40:58;;;;;;;8.17;1.90;;;16.00;99.70;;;;;;5011529;28;20061;-74
2022/06/19 11:43:32;;;;;;;11.32;2.30;;;16.00;99.90;;;;;;5027683;28;20953;-75
2022/06/19 11:46:19;;;;;;;8.75;2.15;;;16.00;99.50;;;;;;5028871;28;20041;-75
2022/06/19 11:48:45;;;;;;;9.48;1.88;;;16.10;99.90;;;;;;5025913;28;20768;-75
2022/06/19 11:51:36;;;;;;;12.32;2.72;;;16.10;99.60;;;;;;5009235;28;20120;-74
2022/06/19 11:54:02;;;;;;;9.45;2.10;;;16.10;97.90;;;;;;5006330;28;20056;-74
2022/06/19 11:56:33;;;;;;;10.45;1.98;;;16.20;98.20;;;;;;4991269;28;20034;-74
2022/06/19 11:59:16;;;;;;;8.73;2.08;;;16.30;99.00;;;;;;5007403;28;20053;-74
2022/06/19 12:01:45;;;;;;;11.02;2.05;;;16.30;96.80;;;;;;5018153;28;20056;-75
2022/06/19 12:04:28;;;;;;;13.32;2.20;;;16.50;98.30;;;;;;5027912;28;20526;-75
2022/06/19 12:06:59;;;;;;;10.00;2.28;;;16.60;99.10;;;;;;5026908;28;20172;-75
2022/06/19 12:09:39;;;;;;;7.93;1.80;;;16.80;97.90;;;;;;5029000;28;20072;-74
2022/06/19 12:12:18;;;;;;;6.70;1.77;;;17.00;96.50;;;;;;5028561;28;20021;-75
2022/06/19 12:14:47;;;;;;;10.40;2.22;;;17.20;97.60;;;;;;5013297;28;20034;-75
2022/06/19 12:17:34;;;;;;;9.05;2.00;;;17.20;96.90;;;;;;5008822;28;20603;-75
2022/06/19 12:20:04;;;;;;;8.82;1.83;;;17.20;96.10;;;;;;4991278;28;20068;-75
2022/06/19 12:23:11;;;;;;;9.60;1.85;;;17.40;96.00;;;;;;4990819;28;20073;-75
2022/06/19 12:26:00;;;;;;;9.65;2.00;;;17.70;97.40;;;;;;4947711;29;20754;-74
2022/06/19 12:28:35;;;;;;;12.32;2.25;;;18.00;96.10;;;;;;4931038;28;20039;-74
2022/06/19 12:31:01;;;;;;;7.43;1.63;;;18.30;94.10;;;;;;4963045;28;20537;-76
2022/06/19 12:33:40;;;;;;;8.80;1.63;;;18.50;93.70;;;;;;4947352;29;20222;-75
2022/06/19 12:36:10;;;;;;;8.95;1.90;;;18.50;94.20;;;;;;4940834;29;20074;-75
2022/06/19 12:38:35;;;;;;;;;;;18.60;93.60;;;;;;4947761;29;20074;-75
2022/06/19 12:41:26;;;;;;;10.95;1.92;;;18.60;92.70;;;;;;4947581;29;19910;-75
2022/06/19 12:44:15;;;;;;;7.90;1.75;;;18.80;92.50;;;;;;4965879;28;20097;-74
2022/06/19 12:47:08;;;;;;;6.88;1.90;;;18.90;92.10;;;;;;4947283;28;20046;-74
2022/06/19 12:49:53;;;;;;;9.85;1.90;;;19.00;90.10;;;;;;4958856;28;20540;-74
2022/06/19 12:52:46;;;;;;;10.10;2.08;;;19.00;85.30;;;;;;4950150;28;20070;-74
2022/06/19 12:55:33;;;;;;;7.88;1.65;;;19.00;86.40;;;;;;4966223;28;20137;-76
2022/06/19 12:58:19;;;;;;;8.95;1.73;;;18.90;83.60;;;;;;4939920;28;20132;-74
2022/06/19 13:00:47;;;;;;;9.45;1.60;;;18.90;88.20;;;;;;5004533;28;20041;-75
2022/06/19 13:03:19;;;;;;;7.43;1.83;;;18.80;89.10;;;;;;5022621;28;20026;-74
2022/06/19 13:06:14;;;;;;;7.03;1.92;;;18.70;84.60;;;;;;5026271;28;20120;-75
2022/06/19 13:08:51;;;;;;;9.65;1.75;;;18.60;87.90;;;;;;5022293;28;20045;-75
2022/06/19 13:11:44;;;;;;;6.70;1.70;;;18.50;89.90;;;;;;5022474;28;20758;-74
2022/06/19 13:14:31;;;;;;;8.63;1.48;;;18.40;90.00;;;;;;5023470;28;20045;-73